Time;durP1;ratioP1;P1;durP2;ratioP2;P2;SDS_P1;SDS_P2;PMS_P1;PMS_P2;Temp;Humidity;BMP_temperature;BMP_pressure;BME280_temperature;BME280_humidity;BME280_pressure;Samples;Min_cycle;Max_cycle;Signal;HPM_P1;HPM_P2
2021/12/30 00:15:33;;;;;;;;;1.00;0.33;;;;;15.81;75.24;101374.38;6098288;23;45844;-84
2021/12/30 00:29:14;;;;;;;;;;;;;;;;;;;;;
2021/12/30 00:33:07;;;;;;;;;;;;;;;;;;;;;
2021/12/30 00:46:06;;;;;;;;;0.67;0.67;;;;;15.70;75.14;101366.56;5867221;24;45770;-84
2021/12/30 00:48:35;;;;;;;;;0.00;0.00;;;;;15.71;75.39;101368.31;5950746;23;46533;-83
2021/12/30 00:51:01;;;;;;;;;2.00;1.67;;;;;15.70;75.58;101371.88;6183072;22;45783;-83
2021/12/30 00:53:27;;;;;;;;;2.00;2.00;;;;;15.73;75.30;101381.59;6278809;22;45323;-83
2021/12/30 00:55:52;;;;;;;;;2.67;1.00;;;;;15.76;75.20;101393.03;6282355;22;45171;-84
2021/12/30 00:58:18;;;;;;;;;0.00;0.00;;;;;15.73;75.39;101393.06;6310723;22;46416;-82
2021/12/30 01:00:45;;;;;;;;;0.67;0.67;;;;;15.75;75.59;101393.06;6282581;22;45410;-83
2021/12/30 01:03:12;;;;;;;;;0.00;0.00;;;;;15.71;75.35;101392.22;6282316;22;45394;-82
2021/12/30 01:05:45;;;;;;;;;2.33;1.67;;;;;15.68;75.46;101394.00;6307989;22;45503;-82
2021/12/30 01:08:10;;;;;;;;;0.33;0.33;;;;;15.72;75.69;101406.38;6307845;22;46807;-82
2021/12/30 01:10:37;;;;;;;;;0.67;0.67;;;;;15.68;75.63;101401.97;6310481;22;45369;-82
2021/12/30 01:13:14;;;;;;;;;1.00;1.00;;;;;15.69;75.70;101415.28;6282553;22;45296;-82
2021/12/30 01:15:48;;;;;;;;;0.00;0.00;;;;;15.71;75.77;101426.72;6310376;22;45160;-83
2021/12/30 01:18:37;;;;;;;;;0.00;0.00;;;;;15.71;75.75;101425.84;6310579;22;45229;-86
2021/12/30 01:21:06;;;;;;;;;2.00;1.00;;;;;15.71;75.73;101428.50;6282083;22;45592;-83
2021/12/30 01:23:31;;;;;;;;;1.00;1.00;;;;;15.68;75.71;101415.25;6281687;22;45287;-83
2021/12/30 01:25:57;;;;;;;;;2.00;1.33;;;;;15.71;75.96;101423.19;6307662;22;45402;-83
2021/12/30 01:28:26;;;;;;;;;2.00;2.00;;;;;15.67;75.83;101432.94;6282018;22;45474;-83
2021/12/30 01:30:52;;;;;;;;;2.00;2.00;;;;;15.68;76.21;101434.69;6281463;22;45926;-83
2021/12/30 01:33:23;;;;;;;;;1.00;1.00;;;;;15.66;76.20;101437.41;6281654;22;45285;-84
2021/12/30 01:35:49;;;;;;;;;1.67;1.67;;;;;15.61;76.30;101425.97;6309912;22;45374;-84
2021/12/30 01:38:16;;;;;;;;;1.33;1.33;;;;;15.66;76.42;101433.84;6306986;22;45491;-84
2021/12/30 01:40:44;;;;;;;;;0.33;0.33;;;;;15.65;76.65;101440.94;6282416;22;45449;-84
2021/12/30 01:43:11;;;;;;;;;0.00;0.00;;;;;15.67;76.53;101443.56;6307959;22;45439;-85
2021/12/30 01:45:38;;;;;;;;;1.00;1.00;;;;;15.66;76.61;101442.69;6309502;22;45478;-84
2021/12/30 01:48:04;;;;;;;;;1.00;1.00;;;;;15.64;76.59;101438.31;6281344;22;48445;-84
2021/12/30 01:50:32;;;;;;;;;0.33;0.33;;;;;15.61;76.79;101430.38;6281622;22;45148;-83
2021/12/30 01:53:09;;;;;;;;;1.67;1.67;;;;;15.64;76.86;101452.44;6309541;22;45235;-84
2021/12/30 01:55:36;;;;;;;;;0.00;0.00;;;;;15.63;76.65;101450.69;6309061;22;45372;-84
2021/12/30 01:58:06;;;;;;;;;0.00;0.00;;;;;15.58;76.48;101439.28;6281139;22;48202;-83
2021/12/30 02:00:35;;;;;;;;;1.33;1.33;;;;;15.65;76.79;101450.66;6307002;22;45366;-84
2021/12/30 02:03:05;;;;;;;;;2.00;1.67;;;;;15.65;77.05;101455.97;6308120;22;45242;-83
2021/12/30 02:08:41;;;;;;;;;1.33;1.33;;;;;15.65;76.83;101459.50;6263793;22;46194;-84
2021/12/30 02:11:07;;;;;;;;;1.00;1.00;;;;;15.65;76.89;101467.47;6281310;22;45622;-84
2021/12/30 02:13:35;;;;;;;;;1.67;1.00;;;;;15.65;76.70;101458.63;6281343;22;45369;-84
2021/12/30 02:16:02;;;;;;;;;1.00;1.00;;;;;15.65;77.14;101462.16;6307544;22;45463;-83
2021/12/30 02:18:31;;;;;;;;;1.00;1.00;;;;;15.63;77.00;101455.13;6309545;22;45248;-83
2021/12/30 02:21:02;;;;;;;;;2.00;2.00;;;;;15.67;76.91;101467.47;6308643;22;45743;-84
2021/12/30 02:23:34;;;;;;;;;1.00;1.00;;;;;15.64;76.67;101471.03;6310469;22;45204;-84
2021/12/30 02:26:17;;;;;;;;;1.33;1.00;;;;;15.61;76.86;101473.72;6309229;22;45775;-84
2021/12/30 02:28:44;;;;;;;;;1.33;1.33;;;;;15.61;77.01;101465.78;6310813;22;46151;-84
2021/12/30 02:31:13;;;;;;;;;0.00;0.00;;;;;15.66;76.65;101473.66;6307280;22;45206;-85
2021/12/30 02:34:23;;;;;;;;;;;;;;;;;;;;;
2021/12/30 02:36:59;;;;;;;;;2.33;1.67;;;;;15.65;76.69;101478.09;6309179;22;72709;-84
2021/12/30 02:39:51;;;;;;;;;;;;;;;;;;;;;
2021/12/30 02:42:26;;;;;;;;;2.00;2.00;;;;;15.69;76.61;101480.72;6309377;22;72765;-85
2021/12/30 02:44:55;;;;;;;;;0.00;0.00;;;;;15.68;76.28;101486.91;6311075;22;45341;-85
2021/12/30 02:47:29;;;;;;;;;0.67;0.67;;;;;15.69;76.42;101494.00;6308760;22;45990;-84
2021/12/30 02:50:00;;;;;;;;;1.67;1.00;;;;;15.71;76.10;101501.06;6310685;22;46417;-84
2021/12/30 02:52:54;;;;;;;;;1.67;0.00;;;;;15.69;76.13;101499.31;6310551;22;45341;-83
2021/12/30 02:55:24;;;;;;;;;0.00;0.00;;;;;15.75;76.33;101510.75;6308687;22;45403;-84
2021/12/30 02:57:50;;;;;;;;;1.00;1.00;;;;;15.72;76.20;101505.47;6282110;22;45270;-84
2021/12/30 03:00:52;;;;;;;;;;;;;;;;;;;;;
2021/12/30 03:04:10;;;;;;;;;1.00;0.00;;;;;15.73;76.11;101503.69;6309203;22;71609;-86
2021/12/30 03:07:19;;;;;;;;;;;;;;;;;;;;;
2021/12/30 03:10:21;;;;;;;;;0.00;0.00;;;;;15.78;75.67;101509.84;6309079;22;72235;-84
2021/12/30 03:12:56;;;;;;;;;1.00;1.00;;;;;15.76;75.75;101507.19;6308393;22;47402;-85
2021/12/30 03:15:32;;;;;;;;;0.00;0.00;;;;;15.78;75.66;101507.19;6282555;22;45567;-85
2021/12/30 03:18:07;;;;;;;;;1.00;1.00;;;;;15.70;75.49;101499.31;6281332;22;45211;-84
2021/12/30 03:20:42;;;;;;;;;0.00;0.00;;;;;15.76;75.45;101504.53;6308308;22;45235;-85
2021/12/30 03:23:17;;;;;;;;;;;;;;;;;;;;;
2021/12/30 03:25:48;;;;;;;;;0.00;0.00;;;;;15.77;75.30;101513.38;6309086;22;73370;-84
2021/12/30 03:28:17;;;;;;;;;0.00;0.00;;;;;15.73;75.48;101507.22;6282247;22;45322;-85
2021/12/30 03:30:58;;;;;;;;;;;;;;;;;;;;;
2021/12/30 03:33:29;;;;;;;;;0.00;0.00;;;;;15.70;75.65;101501.97;6309240;22;74285;-84
2021/12/30 03:35:59;;;;;;;;;0.00;0.00;;;;;15.69;75.52;101499.31;6310999;22;45429;-84
2021/12/30 03:38:25;;;;;;;;;0.00;0.00;;;;;15.73;75.36;101506.34;6308373;22;45195;-84
2021/12/30 03:40:51;;;;;;;;;0.00;0.00;;;;;15.72;75.45;101499.31;6310485;22;45241;-83
2021/12/30 03:43:16;;;;;;;;;1.67;1.67;;;;;15.72;75.37;101500.19;6281252;22;47198;-84
2021/12/30 03:45:44;;;;;;;;;1.33;1.33;;;;;15.66;75.36;101485.19;6282228;22;45216;-84
2021/12/30 03:48:11;;;;;;;;;1.00;1.00;;;;;15.72;75.30;101488.69;6310672;22;45350;-84
2021/12/30 03:50:43;;;;;;;;;1.00;1.00;;;;;15.71;75.25;101489.56;6308127;22;45421;-84
2021/12/30 03:53:12;;;;;;;;;0.00;0.00;;;;;15.70;75.22;101485.16;6307737;22;47567;-84
2021/12/30 03:55:38;;;;;;;;;0.00;0.00;;;;;15.66;75.28;101479.88;6281433;22;45289;-84
2021/12/30 03:58:07;;;;;;;;;0.00;0.00;;;;;15.71;75.13;101482.47;6283325;22;45373;-84
2021/12/30 04:00:33;;;;;;;;;1.00;1.00;;;;;15.70;75.18;101488.69;6308593;22;46029;-84
2021/12/30 04:02:59;;;;;;;;;0.00;0.00;;;;;15.69;75.11;101486.94;6308521;22;47043;-84
2021/12/30 04:05:25;;;;;;;;;0.00;0.00;;;;;15.70;75.27;101486.03;6308270;22;45372;-84
2021/12/30 04:07:51;;;;;;;;;1.00;1.00;;;;;15.70;74.95;101483.38;6282404;22;45321;-84
2021/12/30 04:10:20;;;;;;;;;2.00;2.00;;;;;15.71;75.09;101481.59;6282170;22;45444;-84
2021/12/30 04:12:48;;;;;;;;;1.00;1.00;;;;;15.76;74.94;101485.94;6308370;22;47737;-84
2021/12/30 04:15:13;;;;;;;;;0.00;0.00;;;;;15.77;75.10;101493.03;6310196;22;45160;-83
2021/12/30 04:17:39;;;;;;;;;1.00;0.33;;;;;15.78;75.10;101501.88;6282236;22;45413;-84
2021/12/30 04:20:08;;;;;;;;;0.00;0.00;;;;;15.78;75.27;101489.47;6282297;22;45466;-83
2021/12/30 04:22:39;;;;;;;;;0.00;0.00;;;;;15.81;75.19;101507.13;6308059;22;47729;-84
2021/12/30 04:25:07;;;;;;;;;0.00;0.00;;;;;15.84;74.64;101510.63;6310210;22;45412;-84
2021/12/30 04:27:56;;;;;;;;;0.00;0.00;;;;;15.82;74.55;101493.84;6308382;22;45357;-84
2021/12/30 04:30:26;;;;;;;;;1.67;1.00;;;;;15.81;74.69;101484.09;6307713;22;45642;-84
2021/12/30 04:33:19;;;;;;;;;0.00;0.00;;;;;15.90;74.71;101485.75;6307563;22;46982;-84
2021/12/30 04:35:49;;;;;;;;;1.00;0.00;;;;;15.87;74.54;101476.06;6281640;22;45440;-83
2021/12/30 04:38:15;;;;;;;;;0.00;0.00;;;;;15.86;74.44;101479.63;6281524;22;45127;-84
2021/12/30 04:40:43;;;;;;;;;1.00;1.00;;;;;15.93;74.04;101490.16;6307681;22;45456;-84
2021/12/30 04:43:19;;;;;;;;;0.67;0.67;;;;;15.90;74.24;101484.88;6307929;22;45535;-84
2021/12/30 04:45:47;;;;;;;;;2.00;1.00;;;;;15.94;74.20;101491.91;6307905;22;45853;-84
2021/12/30 04:48:13;;;;;;;;;2.00;2.00;;;;;15.95;74.10;101491.88;6310432;22;45379;-84
2021/12/30 04:50:39;;;;;;;;;0.33;0.33;;;;;15.98;74.02;101509.56;6310281;22;45457;-84
2021/12/30 04:53:36;;;;;;;;;2.33;2.33;;;;;15.94;73.97;101514.03;6309707;22;46167;-85
2021/12/30 04:56:02;;;;;;;;;0.00;0.00;;;;;15.92;73.75;101510.53;6307953;22;45194;-84
2021/12/30 04:58:28;;;;;;;;;0.67;0.67;;;;;15.88;73.73;101516.78;6310171;22;45210;-84
2021/12/30 05:00:56;;;;;;;;;1.00;1.00;;;;;15.91;73.77;101524.72;6309826;22;45227;-83
2021/12/30 05:03:22;;;;;;;;;0.33;0.33;;;;;15.86;73.51;101521.22;6309836;22;45404;-84
2021/12/30 05:05:52;;;;;;;;;0.00;0.00;;;;;15.84;73.47;101525.69;6310279;22;45287;-84
2021/12/30 05:08:22;;;;;;;;;1.00;1.00;;;;;15.79;73.28;101528.38;6282504;22;45244;-83
2021/12/30 05:10:56;;;;;;;;;0.00;0.00;;;;;15.80;73.27;101530.16;6310411;22;45298;-84
2021/12/30 05:13:22;;;;;;;;;2.00;0.67;;;;;15.84;73.29;101531.00;6309904;22;45430;-83
2021/12/30 05:15:48;;;;;;;;;1.33;1.33;;;;;15.85;73.19;101533.63;6310793;22;45307;-84
2021/12/30 05:18:15;;;;;;;;;1.67;1.67;;;;;15.81;73.20;101537.22;6282542;22;45186;-84
2021/12/30 05:20:41;;;;;;;;;2.00;2.00;;;;;15.83;73.30;101532.78;6282043;22;45541;-84
2021/12/30 05:23:08;;;;;;;;;0.67;0.67;;;;;15.80;73.39;101522.19;6307486;22;45704;-84
2021/12/30 05:25:34;;;;;;;;;0.67;0.67;;;;;15.77;73.40;101508.06;6307856;22;45558;-83
2021/12/30 05:28:00;;;;;;;;;2.00;2.00;;;;;15.78;73.00;101520.44;6310845;22;45376;-84
2021/12/30 05:30:26;;;;;;;;;0.00;0.00;;;;;15.76;73.35;101524.91;6307783;22;45407;-84
2021/12/30 05:32:55;;;;;;;;;3.00;2.00;;;;;15.79;73.35;101528.38;6281661;22;48283;-84
2021/12/30 05:35:20;;;;;;;;;2.67;1.00;;;;;15.76;73.11;101533.72;6309478;22;45097;-83
2021/12/30 05:37:47;;;;;;;;;1.00;1.00;;;;;15.73;73.46;101540.88;6309795;22;45193;-83
2021/12/30 05:40:16;;;;;;;;;1.67;1.67;;;;;15.70;73.37;101560.38;6307805;22;45353;-84
2021/12/30 05:42:42;;;;;;;;;0.00;0.00;;;;;15.66;73.58;101569.22;6308758;22;46029;-84
2021/12/30 05:45:09;;;;;;;;;0.00;0.00;;;;;15.65;73.77;101564.81;6284178;22;45306;-83
2021/12/30 05:47:35;;;;;;;;;1.67;1.67;;;;;15.61;73.47;101565.72;6312290;22;45248;-83
2021/12/30 05:50:09;;;;;;;;;13.00;11.00;;;;;15.60;73.71;101579.91;6320566;22;44699;-84
2021/12/30 05:52:35;;;;;;;;;2.00;1.00;;;;;15.55;73.80;101569.34;6320909;22;45261;-84
2021/12/30 05:55:01;;;;;;;;;1.00;1.00;;;;;15.53;73.81;101575.56;6316498;22;44801;-84
2021/12/30 05:57:27;;;;;;;;;1.33;1.00;;;;;15.47;73.80;101579.16;6298268;22;45136;-84
2021/12/30 05:59:52;;;;;;;;;1.67;1.67;;;;;15.38;74.11;101571.31;6322870;22;45123;-84
2021/12/30 06:02:20;;;;;;;;;5.00;2.00;;;;;15.35;73.80;101568.69;6296647;22;46997;-83
2021/12/30 06:04:46;;;;;;;;;1.00;0.00;;;;;15.38;74.06;101589.88;6290883;22;45298;-84
2021/12/30 06:07:12;;;;;;;;;2.67;1.33;;;;;15.28;74.25;101573.16;6283253;22;45448;-84
2021/12/30 06:09:38;;;;;;;;;1.00;1.00;;;;;15.26;73.99;101574.94;6278936;22;45412;-83
2021/12/30 06:12:04;;;;;;;;;3.00;2.00;;;;;15.28;74.46;101586.44;6305256;22;47014;-84
2021/12/30 06:14:29;;;;;;;;;1.33;1.33;;;;;15.21;74.18;101579.44;6277999;22;45604;-83
2021/12/30 06:16:57;;;;;;;;;4.00;3.00;;;;;15.17;74.46;101583.88;6278026;22;45203;-83
2021/12/30 06:19:23;;;;;;;;;1.33;1.33;;;;;15.17;74.37;101575.03;6277885;22;45471;-83
2021/12/30 06:21:48;;;;;;;;;1.00;1.00;;;;;15.11;74.13;101580.41;6303565;22;45450;-83
2021/12/30 06:24:14;;;;;;;;;3.00;3.00;;;;;15.16;74.39;101591.88;6303663;22;45469;-83
2021/12/30 06:26:40;;;;;;;;;2.00;1.00;;;;;15.10;74.10;101599.84;6280017;22;45255;-84
2021/12/30 06:29:05;;;;;;;;;3.67;1.00;;;;;15.11;74.64;101602.50;6278394;22;45499;-84
2021/12/30 06:31:34;;;;;;;;;2.33;2.00;;;;;15.05;74.21;101591.06;6277635;22;48148;-83
2021/12/30 06:33:59;;;;;;;;;3.00;2.00;;;;;15.04;74.57;101597.25;6303707;22;45889;-84
2021/12/30 06:36:25;;;;;;;;;8.67;4.67;;;;;15.02;74.23;101599.91;6304053;22;45126;-83
2021/12/30 06:38:59;;;;;;;;;3.67;3.67;;;;;15.03;74.21;101609.66;6277029;22;45393;-83
2021/12/30 06:41:25;;;;;;;;;2.67;1.00;;;;;14.99;74.33;101597.28;6303165;22;47261;-82
2021/12/30 06:43:50;;;;;;;;;3.00;3.00;;;;;14.95;74.50;101598.22;6277495;22;45219;-82
2021/12/30 06:46:19;;;;;;;;;2.00;2.00;;;;;14.97;74.43;101607.06;6279527;22;45192;-82
2021/12/30 06:48:46;;;;;;;;;3.00;3.00;;;;;14.93;74.15;101603.53;6279343;22;45315;-82
2021/12/30 06:51:18;;;;;;;;;4.00;2.67;;;;;14.95;74.47;101612.34;6303212;22;45679;-82
2021/12/30 06:53:44;;;;;;;;;1.67;1.67;;;;;14.92;74.38;101619.47;6281791;22;45096;-82
2021/12/30 06:56:09;;;;;;;;;3.00;2.00;;;;;14.88;74.21;101623.91;6310837;22;45220;-81
2021/12/30 06:58:35;;;;;;;;;3.33;2.33;;;;;14.87;74.46;101618.63;6310979;22;45284;-82
2021/12/30 07:01:01;;;;;;;;;2.33;2.33;;;;;14.83;74.46;101631.00;6310925;22;45395;-82
2021/12/30 07:03:45;;;;;;;;;1.33;1.33;;;;;14.82;74.42;101634.56;6310366;22;45333;-82
2021/12/30 07:06:10;;;;;;;;;5.00;3.00;;;;;14.84;74.39;101631.91;6282329;22;45321;-83
2021/12/30 07:08:36;;;;;;;;;3.00;2.00;;;;;14.82;74.05;101628.38;6310568;22;45438;-83
2021/12/30 07:11:02;;;;;;;;;4.33;3.33;;;;;14.81;74.13;101627.50;6310551;22;46301;-82
2021/12/30 07:16:37;;;;;;;;;5.00;2.00;;;;;14.74;73.96;101633.72;6304260;22;45547;-82
2021/12/30 07:19:13;;;;;;;;;2.00;2.00;;;;;14.80;74.08;101640.75;6311614;22;45150;-83
2021/12/30 07:21:49;;;;;;;;;2.00;2.00;;;;;14.81;73.93;101646.06;6285035;22;46125;-82
2021/12/30 07:24:21;;;;;;;;;3.00;2.00;;;;;14.83;73.90;101643.38;6308647;22;45434;-83
2021/12/30 07:27:31;;;;;;;;;2.33;2.33;;;;;14.84;73.84;101653.13;6310107;22;45250;-87
2021/12/30 07:30:46;;;;;;;;;2.33;2.33;;;;;14.77;73.71;101642.53;6282557;22;45541;-87
2021/12/30 07:33:20;;;;;;;;;2.33;2.00;;;;;14.84;73.75;101653.97;6217189;22;47410;-85
2021/12/30 07:35:46;;;;;;;;;1.67;1.00;;;;;14.82;73.27;101662.84;6287707;22;45376;-86
2021/12/30 07:47:51;;;;;;;;;5.67;2.33;;;;;14.88;72.77;101671.63;6293679;22;46947;-83
2021/12/30 07:54:29;;;;;;;;;;;;;;;;;;;;;
2021/12/30 07:57:48;;;;;;;;;4.67;4.00;;;;;14.88;72.52;101691.94;6345879;22;45990;-84
2021/12/30 08:00:17;;;;;;;;;4.00;3.33;;;;;14.86;72.72;101696.38;6360368;22;45162;-88
2021/12/30 08:03:27;;;;;;;;;;;;;;;;;;;;;
